createdAt,value
2018-12-29T00:02:23.832Z,1032.3
2018-12-29T00:07:23.875Z,1032.4
2018-12-29T00:12:23.851Z,1032.4
2018-12-29T00:17:24.052Z,1032.4
2018-12-29T00:22:23.807Z,1032.4
2018-12-29T00:27:23.808Z,1032.4
2018-12-29T00:32:23.834Z,1032.5
2018-12-29T00:37:23.831Z,1032.5
2018-12-29T00:42:23.880Z,1032.6
2018-12-29T00:47:23.909Z,1032.6
2018-12-29T00:52:23.858Z,1032.8
2018-12-29T00:57:23.903Z,1032.7
2018-12-29T01:02:23.858Z,1032.8
2018-12-29T01:07:23.922Z,1032.9
2018-12-29T01:12:23.882Z,1032.9
2018-12-29T01:17:23.880Z,1032.9
2018-12-29T01:22:23.901Z,1033
2018-12-29T01:27:23.890Z,1033
2018-12-29T01:32:23.928Z,1033
2018-12-29T01:37:23.893Z,1032.9
2018-12-29T01:42:23.912Z,1032.9
2018-12-29T01:47:24.156Z,1032.9
2018-12-29T01:52:24.077Z,1032.8
2018-12-29T01:57:23.917Z,1032.7
2018-12-29T02:02:23.988Z,1032.8
2018-12-29T02:07:23.955Z,1032.7
2018-12-29T02:12:23.917Z,1032.7
2018-12-29T02:17:23.910Z,1032.7
2018-12-29T02:22:23.918Z,1032.7
2018-12-29T02:27:23.923Z,1032.8
2018-12-29T02:32:23.928Z,1032.8
2018-12-29T02:37:23.936Z,1032.9
2018-12-29T02:42:23.975Z,1032.9
2018-12-29T02:47:23.917Z,1032.8
2018-12-29T02:52:23.944Z,1032.9
2018-12-29T02:57:25.051Z,1032.8
2018-12-29T03:02:25.173Z,1032.9
2018-12-29T03:07:23.928Z,1032.8
2018-12-29T03:12:23.947Z,1032.6
2018-12-29T03:17:23.930Z,1032.7
2018-12-29T03:22:23.949Z,1032.5
2018-12-29T03:27:23.962Z,1032.5
2018-12-29T03:32:24.161Z,1032.4
2018-12-29T03:37:23.977Z,1032.5
2018-12-29T03:42:23.945Z,1032.4
2018-12-29T03:47:24.090Z,1032.6
2018-12-29T03:52:24.196Z,1032.6
2018-12-29T03:57:23.956Z,1032.6
2018-12-29T04:02:24.130Z,1032.7
2018-12-29T04:07:23.997Z,1032.8
2018-12-29T04:12:24.106Z,1032.8
2018-12-29T04:17:23.969Z,1032.8
2018-12-29T04:22:23.987Z,1032.9
2018-12-29T04:27:24.947Z,1033
2018-12-29T04:32:24.138Z,1032.9
2018-12-29T04:37:24.205Z,1033
2018-12-29T04:42:24.242Z,1033
2018-12-29T04:47:24.006Z,1033
2018-12-29T04:52:23.977Z,1033.2
2018-12-29T04:57:24.093Z,1033.2
2018-12-29T05:02:24.026Z,1033.3
2018-12-29T05:07:24.106Z,1033.4
2018-12-29T05:12:24.012Z,1033.3
2018-12-29T05:17:24.026Z,1033.4
2018-12-29T05:22:23.986Z,1033.3
2018-12-29T05:27:24.053Z,1033.4
2018-12-29T05:32:24.255Z,1033.3
2018-12-29T05:37:24.019Z,1033.4
2018-12-29T05:42:24.175Z,1033.4
2018-12-29T05:47:24.035Z,1033.4
2018-12-29T05:52:24.162Z,1033.6
2018-12-29T05:57:24.213Z,1033.6
2018-12-29T06:02:24.017Z,1033.7
2018-12-29T06:07:24.027Z,1033.7
2018-12-29T06:12:24.047Z,1033.7
2018-12-29T06:17:24.037Z,1033.7
2018-12-29T06:22:24.041Z,1033.6
2018-12-29T06:27:24.039Z,1033.7
2018-12-29T06:32:24.046Z,1033.7
2018-12-29T06:37:24.066Z,1033.6
2018-12-29T06:42:24.077Z,1033.6
2018-12-29T06:47:24.070Z,1033.6
2018-12-29T06:52:24.088Z,1033.7
2018-12-29T06:57:24.072Z,1033.8
2018-12-29T07:02:24.107Z,1033.7
2018-12-29T07:07:24.095Z,1033.6
2018-12-29T07:12:24.098Z,1033.7
2018-12-29T07:17:24.098Z,1033.7
2018-12-29T07:22:24.093Z,1033.7
2018-12-29T07:27:24.036Z,1033.9
2018-12-29T07:32:24.109Z,1034
2018-12-29T07:37:24.079Z,1033.9
2018-12-29T07:42:24.079Z,1033.9
2018-12-29T07:47:24.139Z,1034
2018-12-29T07:52:24.107Z,1034.1
2018-12-29T07:57:24.091Z,1034.1
2018-12-29T08:02:24.095Z,1034.1
2018-12-29T08:07:24.138Z,1034.2
2018-12-29T08:12:24.133Z,1034.1
2018-12-29T08:17:24.192Z,1034
2018-12-29T08:22:24.559Z,1034
2018-12-29T08:27:24.121Z,1034
2018-12-29T08:32:24.128Z,1034
2018-12-29T08:37:24.128Z,1033.9
2018-12-29T08:42:24.142Z,1034
2018-12-29T08:47:25.006Z,1033.9
2018-12-29T08:52:24.139Z,1033.9
2018-12-29T08:57:24.146Z,1034
2018-12-29T09:02:24.143Z,1033.9
2018-12-29T09:07:24.147Z,1034.1
2018-12-29T09:12:24.154Z,1034.2
2018-12-29T09:17:24.148Z,1034.2
2018-12-29T09:22:24.163Z,1034.3
2018-12-29T09:27:24.196Z,1034.5
2018-12-29T09:32:24.183Z,1034.6
2018-12-29T09:37:24.159Z,1034.6
2018-12-29T09:42:24.154Z,1034.7
2018-12-29T09:47:24.163Z,1034.7
2018-12-29T09:52:24.198Z,1034.7
2018-12-29T09:57:24.188Z,1034.7
2018-12-29T10:02:24.173Z,1034.7
2018-12-29T10:07:24.193Z,1034.7
2018-12-29T10:12:24.258Z,1034.7
2018-12-29T10:17:28.949Z,1034.8
2018-12-29T10:22:24.249Z,1034.6
2018-12-29T10:27:24.206Z,1034.6
2018-12-29T10:32:24.192Z,1034.6
2018-12-29T10:37:24.211Z,1034.6
2018-12-29T10:42:24.215Z,1034.4
2018-12-29T10:47:24.209Z,1034.5
2018-12-29T10:52:24.203Z,1034.5
2018-12-29T10:57:24.210Z,1034.3
2018-12-29T11:02:24.217Z,1034.3
2018-12-29T11:07:24.268Z,1034.2
2018-12-29T11:12:24.234Z,1034.1
2018-12-29T11:17:24.220Z,1034.1
2018-12-29T11:22:24.257Z,1034.1
2018-12-29T11:27:24.228Z,1034.1
2018-12-29T11:32:24.249Z,1034
2018-12-29T11:37:24.239Z,1034.2
2018-12-29T11:42:24.233Z,1034.2
2018-12-29T11:47:24.238Z,1034.2
2018-12-29T11:52:24.278Z,1034.2
2018-12-29T11:57:24.319Z,1034.2
2018-12-29T12:02:25.149Z,1034.3
2018-12-29T12:07:24.247Z,1034.2
2018-12-29T12:12:24.864Z,1034.2
2018-12-29T12:17:24.329Z,1034.2
2018-12-29T12:22:24.281Z,1034.2
2018-12-29T12:27:25.182Z,1034.2
2018-12-29T12:32:25.021Z,1034.2
2018-12-29T12:37:24.832Z,1034.2
2018-12-29T12:42:24.310Z,1034.4
2018-12-29T12:47:24.309Z,1034.4
2018-12-29T12:52:24.329Z,1034.5
2018-12-29T12:57:25.097Z,1034.5
2018-12-29T13:02:24.430Z,1034.5
2018-12-29T13:07:24.354Z,1034.4
2018-12-29T13:12:24.352Z,1034.5
2018-12-29T13:17:24.340Z,1034.5
2018-12-29T13:22:24.293Z,1034.5
2018-12-29T13:27:24.315Z,1034.5
2018-12-29T13:32:24.318Z,1034.5
2018-12-29T13:37:24.321Z,1034.6
2018-12-29T13:42:24.376Z,1034.6
2018-12-29T13:47:24.357Z,1034.6
2018-12-29T13:52:24.321Z,1034.7
2018-12-29T13:57:24.656Z,1034.7
2018-12-29T14:02:24.347Z,1034.7
2018-12-29T14:07:24.345Z,1034.7
2018-12-29T14:12:24.373Z,1034.6
2018-12-29T14:17:24.512Z,1034.7
2018-12-29T14:22:24.579Z,1034.6
2018-12-29T14:27:24.386Z,1034.5
2018-12-29T14:32:24.361Z,1034.6
2018-12-29T14:37:24.454Z,1034.5
2018-12-29T14:42:24.452Z,1034.4
2018-12-29T14:47:24.464Z,1034.5
2018-12-29T14:52:25.165Z,1034.5
2018-12-29T14:57:24.365Z,1034.4
2018-12-29T15:02:24.439Z,1034.5
2018-12-29T15:07:24.408Z,1034.4
2018-12-29T15:12:25.285Z,1034.4
2018-12-29T15:17:24.418Z,1034.3
2018-12-29T15:22:24.430Z,1034.3
2018-12-29T15:27:24.491Z,1034.1
2018-12-29T15:32:24.604Z,1034
2018-12-29T15:37:24.416Z,1034
2018-12-29T15:42:24.434Z,1034
2018-12-29T15:47:25.539Z,1034.1
2018-12-29T15:52:24.943Z,1034
2018-12-29T15:57:24.536Z,1034
2018-12-29T16:02:25.217Z,1034
2018-12-29T16:07:26.131Z,1033.9
2018-12-29T16:12:24.412Z,1033.9
2018-12-29T16:17:24.950Z,1033.9
2018-12-29T16:22:24.487Z,1033.9
2018-12-29T16:27:24.495Z,1033.9
2018-12-29T16:32:24.474Z,1033.8
2018-12-29T16:37:24.385Z,1033.8
2018-12-29T16:42:24.503Z,1033.8
2018-12-29T16:47:24.469Z,1033.8
2018-12-29T16:52:24.465Z,1033.8
2018-12-29T16:57:24.499Z,1033.6
2018-12-29T17:02:24.480Z,1033.6
2018-12-29T17:07:24.392Z,1033.5
2018-12-29T17:12:24.485Z,1033.5
2018-12-29T17:17:24.533Z,1033.4
2018-12-29T17:22:24.549Z,1033.4
2018-12-29T17:27:25.193Z,1033.4
2018-12-29T17:32:24.507Z,1033.3
2018-12-29T17:37:24.561Z,1033.2
2018-12-29T17:42:24.466Z,1033.2
2018-12-29T17:47:24.592Z,1033.2
2018-12-29T17:52:25.415Z,1033
2018-12-29T17:57:24.573Z,1032.9
2018-12-29T18:02:24.446Z,1032.9
2018-12-29T18:07:24.460Z,1032.8
2018-12-29T18:12:24.533Z,1032.7
2018-12-29T18:17:24.728Z,1032.7
2018-12-29T18:22:25.115Z,1032.6
2018-12-29T18:27:24.774Z,1032.6
2018-12-29T18:32:25.814Z,1032.6
2018-12-29T18:37:24.474Z,1032.5
2018-12-29T18:42:24.529Z,1032.4
2018-12-29T18:47:25.013Z,1032.3
2018-12-29T18:52:25.402Z,1032.2
2018-12-29T18:57:24.877Z,1032.2
2018-12-29T19:02:24.567Z,1032.1
2018-12-29T19:07:24.565Z,1032
2018-12-29T19:12:24.629Z,1032
2018-12-29T19:17:25.519Z,1031.8
2018-12-29T19:22:27.698Z,1031.8
2018-12-29T19:27:24.576Z,1031.8
2018-12-29T19:32:25.549Z,1031.6
2018-12-29T19:37:24.587Z,1031.7
2018-12-29T19:42:24.613Z,1031.6
2018-12-29T19:47:25.268Z,1031.6
2018-12-29T19:52:24.658Z,1031.4
2018-12-29T19:57:27.787Z,1031.4
2018-12-29T20:02:26.764Z,1031.3
2018-12-29T20:07:24.765Z,1031.4
2018-12-29T20:12:24.885Z,1031.2
2018-12-29T20:17:25.644Z,1031.3
2018-12-29T20:22:24.619Z,1031
2018-12-29T20:27:24.801Z,1031
2018-12-29T20:32:24.561Z,1031
2018-12-29T20:37:24.688Z,1031
2018-12-29T20:42:24.610Z,1030.8
2018-12-29T20:47:25.091Z,1030.4
2018-12-29T20:52:24.614Z,1030.4
2018-12-29T20:57:24.708Z,1030.5
2018-12-29T21:02:24.616Z,1030.2
2018-12-29T21:07:25.087Z,1030.4
2018-12-29T21:12:27.258Z,1030.4
2018-12-29T21:17:27.979Z,1030.1
2018-12-29T21:22:24.649Z,1030.5
2018-12-29T21:27:24.658Z,1030.4
2018-12-29T21:32:24.688Z,1030.5
2018-12-29T21:37:24.817Z,1030.3
2018-12-29T21:42:25.178Z,1030.3
2018-12-29T21:47:25.506Z,1030.3
2018-12-29T21:52:25.333Z,1030.2
2018-12-29T21:57:24.649Z,1029.9
2018-12-29T22:02:24.592Z,1030.3
2018-12-29T22:07:24.626Z,1030.2
2018-12-29T22:12:24.677Z,1030.1
2018-12-29T22:17:24.743Z,1030.1
2018-12-29T22:22:24.675Z,1030.1
2018-12-29T22:27:24.620Z,1029.9
2018-12-29T22:32:24.772Z,1029.7
2018-12-29T22:37:24.889Z,1029.6
2018-12-29T22:42:24.644Z,1029.3
2018-12-29T22:47:24.776Z,1029.3
2018-12-29T22:52:24.688Z,1029.3
2018-12-29T22:57:28.297Z,1029.2
2018-12-29T23:02:24.809Z,1028.8
2018-12-29T23:07:24.713Z,1028.8
2018-12-29T23:12:25.513Z,1028.5
2018-12-29T23:17:24.742Z,1028.3
2018-12-29T23:22:24.676Z,1028.3
2018-12-29T23:27:24.710Z,1028.4
2018-12-29T23:32:24.770Z,1028.3
2018-12-29T23:37:25.514Z,1028.2
2018-12-29T23:42:24.681Z,1028
2018-12-29T23:47:24.684Z,1028
2018-12-29T23:52:24.847Z,1027.8
2018-12-29T23:57:25.519Z,1027.8
